createdAt,value
2023-03-20T00:00:14.808Z,8.20
2023-03-20T00:05:03.017Z,10.30
2023-03-20T00:09:28.936Z,9.20
2023-03-20T00:13:55.265Z,6.40
2023-03-20T00:18:19.495Z,6.30
2023-03-20T00:22:44.424Z,7.80
2023-03-20T00:27:20.882Z,5.10
2023-03-20T00:31:44.666Z,5.50
2023-03-20T00:36:18.857Z,6.90
2023-03-20T00:40:48.638Z,6.20
2023-03-20T00:45:29.610Z,8.00
2023-03-20T00:49:53.469Z,7.20
2023-03-20T00:54:17.520Z,4.70
2023-03-20T00:58:42.406Z,6.20
2023-03-20T01:03:06.383Z,5.60
2023-03-20T01:07:13.861Z,6.20
2023-03-20T01:11:37.806Z,7.30
2023-03-20T01:16:02.858Z,6.10
2023-03-20T01:20:27.791Z,5.70
2023-03-20T01:24:52.901Z,8.30
2023-03-20T01:29:22.675Z,4.90
2023-03-20T01:33:46.817Z,7.50
2023-03-20T01:38:11.799Z,8.40
2023-03-20T01:42:41.292Z,6.60
2023-03-20T01:47:20.323Z,7.60
2023-03-20T01:51:44.949Z,6.80
2023-03-20T01:56:15.548Z,6.30
2023-03-20T02:00:40.247Z,5.90
2023-03-20T02:05:09.090Z,5.70
2023-03-20T02:09:32.987Z,7.00
2023-03-20T02:13:39.890Z,6.20
2023-03-20T02:18:03.889Z,6.00
2023-03-20T02:22:30.496Z,9.20
2023-03-20T02:31:04.107Z,7.40
2023-03-20T02:35:45.484Z,5.50
2023-03-20T02:40:07.742Z,6.50
2023-03-20T02:44:36.156Z,6.20
2023-03-20T02:48:58.900Z,5.50
2023-03-20T02:53:31.642Z,5.70
2023-03-20T02:58:21.125Z,5.50
2023-03-20T03:02:52.943Z,5.30
2023-03-20T03:07:19.687Z,7.40
2023-03-20T03:12:00.642Z,5.50
2023-03-20T03:16:24.278Z,5.30
2023-03-20T03:20:50.401Z,4.80
2023-03-20T03:25:25.144Z,6.20
2023-03-20T03:29:56.176Z,6.80
2023-03-20T03:34:21.063Z,5.00
2023-03-20T03:39:10.400Z,6.50
2023-03-20T03:43:35.395Z,6.30
2023-03-20T03:48:11.383Z,5.10
2023-03-20T03:52:35.306Z,6.10
2023-03-20T03:56:59.241Z,7.50
2023-03-20T04:01:29.714Z,4.90
2023-03-20T04:05:46.344Z,5.60
2023-03-20T04:10:11.388Z,5.40
2023-03-20T04:14:35.241Z,5.60
2023-03-20T04:18:59.106Z,6.60
2023-03-20T04:23:23.103Z,6.60
2023-03-20T04:27:40.836Z,6.60
2023-03-20T04:32:04.873Z,6.80
2023-03-20T04:36:29.960Z,7.10
2023-03-20T04:40:53.841Z,9.10
2023-03-20T04:45:09.752Z,6.40
2023-03-20T04:49:34.389Z,5.60
2023-03-20T04:53:58.630Z,6.70
2023-03-20T04:58:22.508Z,5.70
2023-03-20T05:02:46.410Z,11.40
2023-03-20T05:07:10.327Z,6.60
2023-03-20T05:11:34.264Z,6.60
2023-03-20T05:16:34.068Z,10.50
2023-03-20T05:21:27.655Z,18.40
2023-03-20T05:25:52.534Z,6.30
2023-03-20T05:30:16.602Z,8.00
2023-03-20T05:34:43.106Z,9.60
2023-03-20T05:39:18.772Z,8.70
2023-03-20T05:43:48.583Z,10.00
2023-03-20T05:48:16.294Z,15.80
2023-03-20T05:52:43.100Z,13.20
2023-03-20T05:57:19.180Z,10.70
2023-03-20T06:01:51.139Z,25.00
2023-03-20T06:06:21.762Z,29.90
2023-03-20T06:10:47.782Z,38.80
2023-03-20T06:15:04.119Z,18.80
2023-03-20T06:19:25.767Z,24.30
2023-03-20T06:23:49.668Z,23.90
2023-03-20T06:28:13.241Z,10.70
2023-03-20T06:32:40.563Z,40.20
2023-03-20T06:37:05.642Z,6.50
2023-03-20T06:41:34.690Z,25.30
2023-03-20T06:45:58.974Z,22.30
2023-03-20T06:50:31.554Z,23.80
2023-03-20T06:54:59.103Z,15.90
2023-03-20T06:59:23.210Z,10.90
2023-03-20T07:03:50.156Z,15.10
2023-03-20T07:08:16.121Z,9.00
2023-03-20T07:12:41.752Z,13.90
2023-03-20T07:17:03.144Z,12.80
2023-03-20T07:21:27.091Z,13.50
2023-03-20T07:25:50.975Z,17.50
2023-03-20T07:30:17.082Z,14.40
2023-03-20T07:34:40.959Z,14.50
2023-03-20T07:39:32.381Z,11.60
2023-03-20T07:43:56.298Z,13.90
2023-03-20T07:48:29.348Z,15.40
2023-03-20T07:52:46.380Z,11.30
2023-03-20T07:57:10.524Z,11.10
2023-03-20T08:01:48.991Z,11.20
2023-03-20T08:06:12.982Z,7.40
2023-03-20T08:10:37.106Z,7.20
2023-03-20T08:15:01.150Z,9.70
2023-03-20T08:19:25.074Z,9.70
2023-03-20T08:23:52.069Z,8.60
2023-03-20T08:28:17.066Z,8.20
2023-03-20T08:32:41.001Z,9.00
2023-03-20T08:37:26.818Z,12.10
2023-03-20T08:41:52.116Z,9.70
2023-03-20T08:46:16.665Z,12.50
2023-03-20T08:50:38.891Z,9.70
2023-03-20T08:55:06.899Z,10.10
2023-03-20T08:59:30.775Z,10.20
2023-03-20T09:03:54.540Z,8.20
2023-03-20T09:08:19.364Z,9.30
2023-03-20T09:12:43.256Z,8.00
2023-03-20T09:17:07.296Z,7.60
2023-03-20T09:21:27.317Z,10.40
2023-03-20T09:25:48.353Z,9.30
2023-03-20T09:30:12.324Z,8.80
2023-03-20T09:34:36.277Z,8.20
2023-03-20T09:39:00.389Z,8.70
2023-03-20T09:43:31.896Z,10.10
2023-03-20T09:48:07.555Z,9.90
2023-03-20T09:52:44.576Z,13.70
2023-03-20T09:57:07.977Z,7.80
2023-03-20T10:01:33.072Z,11.10
2023-03-20T10:05:59.646Z,10.60
2023-03-20T10:10:31.941Z,8.00
2023-03-20T10:14:57.326Z,8.30
2023-03-20T10:19:26.980Z,6.40
2023-03-20T10:23:57.746Z,8.70
2023-03-20T10:28:26.803Z,12.60
2023-03-20T10:33:08.930Z,9.50
2023-03-20T10:37:44.815Z,10.40
2023-03-20T10:42:17.440Z,10.70
2023-03-20T10:46:45.499Z,7.40
2023-03-20T10:51:14.571Z,10.30
2023-03-20T10:55:41.169Z,8.90
2023-03-20T11:00:30.139Z,7.60
2023-03-20T11:04:59.731Z,9.80
2023-03-20T11:14:17.608Z,6.40
2023-03-20T11:18:42.563Z,8.50
2023-03-20T11:23:10.237Z,8.50
2023-03-20T11:27:34.187Z,8.80
2023-03-20T11:31:57.790Z,7.80
2023-03-20T11:36:22.091Z,9.60
2023-03-20T11:40:46.884Z,7.50
2023-03-20T11:49:43.241Z,8.20
2023-03-20T11:54:06.783Z,8.10
2023-03-20T11:58:33.930Z,7.50
2023-03-20T12:02:59.759Z,12.30
2023-03-20T12:11:33.945Z,7.40
2023-03-20T12:16:03.631Z,7.60
2023-03-20T12:20:37.000Z,7.50
2023-03-20T12:24:55.023Z,7.30
2023-03-20T12:29:27.574Z,7.40
2023-03-20T12:33:55.711Z,20.50
2023-03-20T12:38:20.673Z,8.90
2023-03-20T12:42:46.963Z,7.20
2023-03-20T12:47:10.887Z,7.60
2023-03-20T12:51:44.559Z,6.00
2023-03-20T12:56:20.537Z,10.70
2023-03-20T13:00:56.116Z,7.70
2023-03-20T13:05:22.728Z,9.20
2023-03-20T13:10:01.954Z,6.20
2023-03-20T13:14:27.727Z,11.30
2023-03-20T13:19:00.437Z,16.40
2023-03-20T13:23:27.927Z,13.50
2023-03-20T13:28:01.919Z,8.80
2023-03-20T13:32:56.052Z,12.80
2023-03-20T13:37:25.068Z,22.40
2023-03-20T13:41:50.974Z,9.40
2023-03-20T13:46:09.850Z,11.50
2023-03-20T13:50:38.769Z,19.20
2023-03-20T13:55:14.943Z,11.20
2023-03-20T13:59:51.615Z,55.60
2023-03-20T14:04:44.180Z,13.10
2023-03-20T14:09:09.705Z,15.30
2023-03-20T14:13:35.752Z,17.30
2023-03-20T14:18:03.421Z,21.40
2023-03-20T14:22:27.509Z,8.70
2023-03-20T14:27:00.717Z,10.40
2023-03-20T14:31:32.712Z,35.50
2023-03-20T14:36:05.425Z,19.40
2023-03-20T14:40:37.502Z,13.40
2023-03-20T14:45:08.147Z,23.80
2023-03-20T14:49:33.196Z,19.60
2023-03-20T14:53:56.778Z,14.80
2023-03-20T14:58:22.880Z,10.60
2023-03-20T15:06:51.421Z,9.50
2023-03-20T15:11:18.639Z,9.50
2023-03-20T15:15:46.205Z,4.60
2023-03-20T15:20:12.101Z,4.30
2023-03-20T15:24:41.802Z,4.50
2023-03-20T15:29:20.756Z,5.80
2023-03-20T15:33:59.556Z,4.70
2023-03-20T15:39:02.724Z,2.20
2023-03-20T15:43:28.140Z,2.50
2023-03-20T15:47:54.599Z,3.40
2023-03-20T15:56:52.269Z,1.90
2023-03-20T16:06:20.662Z,4.60
2023-03-20T16:10:57.773Z,6.50
2023-03-20T16:15:21.696Z,3.70
2023-03-20T16:19:41.834Z,7.90
2023-03-20T16:24:27.258Z,4.20
2023-03-20T16:28:49.766Z,3.20
2023-03-20T16:33:13.431Z,3.50
2023-03-20T16:37:29.697Z,3.50
2023-03-20T16:42:05.224Z,5.20
2023-03-20T16:46:23.083Z,2.80
2023-03-20T16:50:50.821Z,4.00
2023-03-20T16:55:15.962Z,5.50
2023-03-20T16:59:39.821Z,3.90
2023-03-20T17:04:06.659Z,6.10
2023-03-20T17:08:34.476Z,4.80
2023-03-20T17:12:59.447Z,5.10
2023-03-20T17:17:23.402Z,4.40
2023-03-20T17:21:47.448Z,3.90
2023-03-20T17:26:11.112Z,3.90
2023-03-20T17:30:36.906Z,5.70
2023-03-20T17:35:02.852Z,4.40
2023-03-20T17:39:26.756Z,4.30
2023-03-20T17:43:53.178Z,5.10
2023-03-20T17:52:26.166Z,5.60
2023-03-20T18:01:35.293Z,5.40
2023-03-20T18:05:58.818Z,6.60
2023-03-20T18:10:22.628Z,5.30
2023-03-20T18:14:55.901Z,6.20
2023-03-20T18:19:30.063Z,10.20
2023-03-20T18:23:56.853Z,4.60
2023-03-20T18:28:20.862Z,4.60
2023-03-20T18:32:48.976Z,5.90
2023-03-20T18:37:10.765Z,4.70
2023-03-20T18:41:35.675Z,5.10
2023-03-20T18:46:01.583Z,6.20
2023-03-20T18:50:36.523Z,4.00
2023-03-20T18:55:01.732Z,4.70
2023-03-20T18:59:27.453Z,4.80
2023-03-20T19:03:55.353Z,4.40
2023-03-20T19:08:20.440Z,3.60
2023-03-20T19:12:44.772Z,3.80
2023-03-20T19:17:26.940Z,4.20
2023-03-20T19:21:57.108Z,6.60
2023-03-20T19:26:22.988Z,4.40
2023-03-20T19:30:59.992Z,12.50
2023-03-20T19:35:50.231Z,11.10
2023-03-20T19:40:11.963Z,5.30
2023-03-20T19:44:35.922Z,5.40
2023-03-20T19:48:53.673Z,4.80
2023-03-20T19:53:21.384Z,41.30
2023-03-20T19:57:45.695Z,34.90
2023-03-20T20:02:09.610Z,37.80
2023-03-20T20:06:34.666Z,31.90
2023-03-20T20:10:58.689Z,18.70
2023-03-20T20:15:24.628Z,16.70
2023-03-20T20:19:55.354Z,15.20
2023-03-20T20:24:23.362Z,32.50
2023-03-20T20:28:47.280Z,41.30
2023-03-20T20:33:10.047Z,67.00
2023-03-20T20:42:26.099Z,72.90
2023-03-20T20:46:52.053Z,49.20
2023-03-20T20:51:18.147Z,50.00
2023-03-20T20:55:42.200Z,37.90
2023-03-20T21:00:06.335Z,30.60
2023-03-20T21:04:30.237Z,20.30
2023-03-20T21:09:01.578Z,10.60
2023-03-20T21:13:20.640Z,7.40
2023-03-20T21:17:57.881Z,10.00
2023-03-20T21:22:25.397Z,6.30
2023-03-20T21:26:50.428Z,7.40
2023-03-20T21:31:24.473Z,7.70
2023-03-20T21:35:42.666Z,22.20
2023-03-20T21:40:06.518Z,7.20
2023-03-20T21:59:48.634Z,5.40
2023-03-20T22:18:38.412Z,6.90
2023-03-20T22:23:29.322Z,7.90
2023-03-20T22:27:58.504Z,9.10
2023-03-20T22:32:40.913Z,8.90
2023-03-20T22:37:46.314Z,9.50
2023-03-20T22:46:44.867Z,7.20
2023-03-20T22:51:09.700Z,12.00
2023-03-20T22:55:24.641Z,10.10
2023-03-20T22:59:49.505Z,12.40
2023-03-20T23:04:13.456Z,9.30
2023-03-20T23:08:48.027Z,6.70
2023-03-20T23:13:17.235Z,5.60
2023-03-20T23:17:42.090Z,11.00
2023-03-20T23:22:06.126Z,6.20
2023-03-20T23:26:49.201Z,7.00
2023-03-20T23:31:13.532Z,8.40
2023-03-20T23:35:38.855Z,9.20
2023-03-20T23:40:02.732Z,6.00
2023-03-20T23:44:27.745Z,6.60
2023-03-20T23:48:57.188Z,8.00
2023-03-20T23:53:25.209Z,6.40
2023-03-20T23:57:49.195Z,5.40
